Airfield :
LOGIN :

Register | Disclaimer

   EN    FR    IT 

 










Legend :    VFR   Marginal VFR   IFR   Intensive IFR   Very Intensive IFR
Visi :
Ceiling :
>= 8 km
>= 3000ft
5 to 8 km
1000 to 3000 ft
1500m to 5 km
500 to 1000 ft
800 to 1500m
200 to 500 ft
< 800m
< 200 ft
Symbols :   Thunderstorms  Fog  Heavy snow  Heavy precipitations  Wind > 20 kt
SIGMETs :     Misc.  Thunderstorms  Icing  Turbulence  Mountain Waves  Volcanic Ashes






- Airport Elevation : 7 ft
- IATA code : XHE


LFTH - Hyeres

CURRENT METAR :
  • 100500Z AUTO 34006KT 310V010 CAVOK 17/12 Q1011 TEMPO 09025G35KT SHRA SCT100TCU

EXPIRED METARs :
  • 100430Z AUTO 03010KT CAVOK 17/12 Q1010 TEMPO 09025G35KT SHRA SCT100TCU
  • 100400Z AUTO 06015KT CAVOK 17/12 Q1011 TEMPO 09025G35KT SHRA SCT100TCU
  • 100330Z AUTO 09014KT 9999 FEW047/// BKN140/// OVC160/// ///TCU 17/13 Q1012 TEMPO 09025G35KT SHRA
  • 100300Z AUTO 08012KT 050V110 9999 -RA NSC 17/13 Q1012 TEMPO 09025G35KT SHRA SCT100TCU
  • 100230Z AUTO 11011KT 9999 ///CB 17/13 Q1014 TEMPO 09025G35KT SHRA

TAF TAF LFTH
Valid from the 10 at 03:00 until the 11 at 03:00 UTC


100200Z 1003/1103 08015G25KT CAVOK
TEMPO 1003/1008 SHRA SCT100TCU
TEMPO 1003/1009 09025G35KT
TEMPO 1009/1021 4000 RA SCT015 BKN060
BECMG 1011/1013 09012KT
TEMPO 1021/1103 4000 SHRA FEW020TCU BKN030
PROB40
TEMPO 1022/1103 2000 TSRA FEW010 SCT020CB BKN030
BECMG 1101/1103 15010KT



MET'MAP, your aeronautical weather chart ! - Copyright ORBIFLY December 2007 - Disclaimer

ORBIFLY MET'MAP TEAM :

Programming & Development : Alexandra Zaïnal
Concept & original design : Baudouin d'Aumeries
Assistance for programming : Marc-Olivier Méhu
Technical & hardware support : Manuel Goepfert

Contact : metmap@orbifly.com




SOURCES & CREDITS :

   NOAA